EDT,Max TemperatureF,Mean TemperatureF,Min TemperatureF,Max Dew PointF,MeanDew PointF,Min DewpointF,Max Humidity, Mean Humidity, Min Humidity, Max Sea Level PressureIn, Mean Sea Level PressureIn, Min Sea Level PressureIn, Max VisibilityMiles, Mean VisibilityMiles, Min VisibilityMiles, Max Wind SpeedMPH, Mean Wind SpeedMPH, Max Gust SpeedMPH,PrecipitationIn, CloudCover, Events, WindDirDegrees
2012-9-1,89,80,69,70,69,68,100,78,52,30.18,30.11,30.03,10,10,10,13,5,21,0.00,2,Rain,212
2012-9-2,82,76,69,72,70,68,100,90,66,30.04,29.94,29.85,10,9,2,14,6,22,0.00,4,Rain,188
2012-9-3,80,74,69,73,70,70,100,91,70,29.94,29.90,29.87,10,8,2,12,5,18,0.00,7,Rain,200
2012-9-4,86,78,69,72,70,66,100,84,55,29.95,29.92,29.89,10,9,5,6,1,,0.00,5,,215
2012-9-5,89,78,68,73,70,68,100,88,52,29.95,29.91,29.85,10,9,1,14,2,32,0.00,4,Rain,197
2012-9-6,86,77,68,68,67,64,100,81,55,30.03,29.98,29.93,10,10,7,7,2,,0.00,4,,250
2012-9-7,89,76,64,70,68,63,100,78,49,30.02,29.92,29.78,10,8,4,13,3,16,0.00,1,,211
2012-9-8,77,68,59,68,59,50,100,80,46,29.98,29.86,29.74,10,9,3,21,8,37,0.00,6,Rain,306
2012-9-9,77,64,50,54,51,48,100,68,41,30.09,30.01,29.96,10,10,10,13,3,16,0.00,1,,292
2012-9-10,73,62,51,55,51,46,100,71,38,30.22,30.17,30.09,10,10,10,8,3,,0.00,0,,42
2012-9-11,78,62,46,57,52,46,100,71,39,30.29,30.24,30.20,10,10,7,8,1,,0.00,0,,184
2012-9-12,82,68,55,61,57,54,94,72,42,30.34,30.28,30.25,10,10,10,10,2,,0.00,3,,235
2012-9-13,80,70,60,61,59,55,94,73,42,30.36,30.29,30.24,10,10,10,7,1,,0.00,4,,208
2012-9-14,82,68,55,63,58,55,100,74,42,30.28,30.26,30.22,10,10,7,9,2,,0.00,3,,311
2012-9-15,73,64,55,57,50,43,88,64,35,30.32,30.25,30.18,10,10,10,12,6,17,0.00,2,,56
2012-9-16,73,65,57,63,55,50,94,73,56,30.18,30.13,30.06,10,10,10,5,0,,0.00,6,Rain,119
2012-9-17,68,64,60,66,63,59,100,96,88,30.08,29.96,29.78,10,7,3,8,2,,0.00,7,Rain,173
2012-9-18,66,58,50,64,57,43,100,87,59,30.05,29.82,29.70,10,9,2,13,4,21,0.00,6,Rain,307
2012-9-19,64,52,41,45,40,34,100,68,32,30.21,30.14,30.05,10,10,7,8,3,,0.00,0,,50
2012-9-20,77,59,41,52,47,41,100,68,34,30.12,30.07,30.00,10,10,10,15,3,20,0.00,1,,214
2012-9-21,77,66,55,59,54,52,88,67,50,30.07,29.99,29.87,10,10,10,15,7,23,0.00,3,,209
2012-9-22,73,60,46,55,48,34,82,56,27,30.18,30.00,29.88,10,10,10,18,11,24,0.00,2,,282
2012-9-23,62,48,35,41,37,34,93,68,39,30.27,30.23,30.18,10,10,10,10,1,,0.00,1,,5
2012-9-24,68,52,35,45,38,34,100,68,32,30.31,30.23,30.11,10,10,10,7,1,,0.00,0,,186
2012-9-25,68,56,44,59,50,41,94,78,63,30.20,30.10,30.04,10,9,1,18,5,24,0.00,4,Rain,205
2012-9-26,80,70,60,63,58,54,88,68,50,30.16,30.12,30.08,10,10,10,15,8,23,0.00,2,,217
2012-9-27,77,68,60,64,61,57,100,83,61,30.20,30.16,30.12,10,10,7,9,4,,0.00,5,Rain,228
2012-9-28,69,64,60,64,62,61,100,94,78,30.14,30.10,30.05,10,8,0,10,2,17,0.00,7,Fog-Rain,251
2012-9-29,69,60,51,63,58,52,100,87,56,30.07,30.03,29.98,10,6,0,10,2,17,0.00,5,Fog,45
2012-9-30,71,58,46,59,52,46,100,80,46,30.00,29.92,29.86,10,9,2,9,1,,0.00,0,,247